sensor_id;sensor_type;location;lat;lon;timestamp;pressure;altitude;pressure_sealevel;temperature;humidity
50364;BME280;36272;59.400;17.982;2023-12-14T00:00:24;101319.22;;;-3.84;77.59
50364;BME280;36272;59.400;17.982;2023-12-14T00:05:26;101329.16;;;-3.90;77.74
50364;BME280;36272;59.400;17.982;2023-12-14T00:10:28;101331.28;;;-3.95;77.72
50364;BME280;36272;59.400;17.982;2023-12-14T00:15:29;101335.44;;;-3.92;77.90
50364;BME280;36272;59.400;17.982;2023-12-14T00:20:31;101339.94;;;-3.94;77.55
50364;BME280;36272;59.400;17.982;2023-12-14T00:25:37;101336.72;;;-3.98;77.58
50364;BME280;36272;59.400;17.982;2023-12-14T00:30:39;101347.41;;;-4.01;77.63
50364;BME280;36272;59.400;17.982;2023-12-14T00:35:41;101338.63;;;-4.00;77.54
50364;BME280;36272;59.400;17.982;2023-12-14T00:40:42;101339.69;;;-4.03;77.62
50364;BME280;36272;59.400;17.982;2023-12-14T00:45:44;101346.81;;;-4.05;77.58
50364;BME280;36272;59.400;17.982;2023-12-14T00:50:47;101344.50;;;-4.09;77.36
50364;BME280;36272;59.400;17.982;2023-12-14T00:55:48;101352.34;;;-4.09;77.52
50364;BME280;36272;59.400;17.982;2023-12-14T01:00:50;101350.81;;;-4.12;77.59
50364;BME280;36272;59.400;17.982;2023-12-14T01:05:52;101349.13;;;-4.13;77.40
50364;BME280;36272;59.400;17.982;2023-12-14T01:10:53;101339.72;;;-4.15;77.46
50364;BME280;36272;59.400;17.982;2023-12-14T01:15:55;101341.38;;;-4.14;77.50
50364;BME280;36272;59.400;17.982;2023-12-14T01:20:56;101347.69;;;-4.17;77.49
50364;BME280;36272;59.400;17.982;2023-12-14T01:25:58;101342.69;;;-4.20;77.53
50364;BME280;36272;59.400;17.982;2023-12-14T01:30:59;101346.84;;;-4.18;77.53
50364;BME280;36272;59.400;17.982;2023-12-14T01:36:01;101341.59;;;-4.18;77.39
50364;BME280;36272;59.400;17.982;2023-12-14T01:41:03;101343.53;;;-4.20;77.52
50364;BME280;36272;59.400;17.982;2023-12-14T01:46:05;101342.56;;;-4.19;77.48
50364;BME280;36272;59.400;17.982;2023-12-14T01:51:07;101347.69;;;-4.17;77.64
50364;BME280;36272;59.400;17.982;2023-12-14T01:56:08;101352.91;;;-4.17;77.52
50364;BME280;36272;59.400;17.982;2023-12-14T02:06:21;101355.00;;;-4.22;77.59
50364;BME280;36272;59.400;17.982;2023-12-14T02:11:24;101350.72;;;-4.23;77.70
50364;BME280;36272;59.400;17.982;2023-12-14T02:16:26;101338.53;;;-4.23;77.72
50364;BME280;36272;59.400;17.982;2023-12-14T02:21:27;101341.94;;;-4.22;77.60
50364;BME280;36272;59.400;17.982;2023-12-14T02:26:29;101350.63;;;-4.22;77.79
50364;BME280;36272;59.400;17.982;2023-12-14T02:31:31;101351.59;;;-4.23;77.73
50364;BME280;36272;59.400;17.982;2023-12-14T02:36:37;101345.41;;;-4.22;77.76
50364;BME280;36272;59.400;17.982;2023-12-14T02:41:39;101350.63;;;-4.22;77.82
50364;BME280;36272;59.400;17.982;2023-12-14T02:46:40;101347.31;;;-4.24;77.84
50364;BME280;36272;59.400;17.982;2023-12-14T02:51:42;101347.31;;;-4.24;77.96
50364;BME280;36272;59.400;17.982;2023-12-14T02:56:44;101350.72;;;-4.23;77.85
50364;BME280;36272;59.400;17.982;2023-12-14T03:01:45;101352.75;;;-4.27;77.83
50364;BME280;36272;59.400;17.982;2023-12-14T03:06:47;101355.22;;;-4.25;78.03
50364;BME280;36272;59.400;17.982;2023-12-14T03:11:49;101349.19;;;-4.26;78.05
50364;BME280;36272;59.400;17.982;2023-12-14T03:16:50;101350.00;;;-4.25;77.97
50364;BME280;36272;59.400;17.982;2023-12-14T03:21:52;101352.75;;;-4.27;78.16
50364;BME280;36272;59.400;17.982;2023-12-14T03:26:54;101346.66;;;-4.27;78.14
50364;BME280;36272;59.400;17.982;2023-12-14T03:31:56;101348.47;;;-4.28;78.12
50364;BME280;36272;59.400;17.982;2023-12-14T03:36:57;101344.78;;;-4.25;77.99
50364;BME280;36272;59.400;17.982;2023-12-14T03:41:59;101348.56;;;-4.29;77.98
50364;BME280;36272;59.400;17.982;2023-12-14T03:47:01;101349.28;;;-4.27;78.11
50364;BME280;36272;59.400;17.982;2023-12-14T03:52:03;101348.47;;;-4.28;78.08
50364;BME280;36272;59.400;17.982;2023-12-14T03:57:04;101350.00;;;-4.25;78.09
50364;BME280;36272;59.400;17.982;2023-12-14T04:02:06;101347.75;;;-4.30;78.23
50364;BME280;36272;59.400;17.982;2023-12-14T04:07:08;101352.09;;;-4.30;78.29
50364;BME280;36272;59.400;17.982;2023-12-14T04:12:09;101353.56;;;-4.26;78.28
50364;BME280;36272;59.400;17.982;2023-12-14T04:17:11;101344.78;;;-4.25;78.23
50364;BME280;36272;59.400;17.982;2023-12-14T04:22:13;101337.78;;;-4.25;78.23
50364;BME280;36272;59.400;17.982;2023-12-14T04:27:15;101336.84;;;-4.24;78.21
50364;BME280;36272;59.400;17.982;2023-12-14T04:32:16;101343.03;;;-4.25;78.32
50364;BME280;36272;59.400;17.982;2023-12-14T04:37:18;101340.41;;;-4.25;78.34
50364;BME280;36272;59.400;17.982;2023-12-14T04:42:20;101355.75;;;-4.20;78.46
50364;BME280;36272;59.400;17.982;2023-12-14T04:47:21;101355.63;;;-4.19;78.41
50364;BME280;36272;59.400;17.982;2023-12-14T04:52:23;101356.47;;;-4.18;78.60
50364;BME280;36272;59.400;17.982;2023-12-14T04:57:25;101353.97;;;-4.20;78.43
50364;BME280;36272;59.400;17.982;2023-12-14T05:02:26;101353.13;;;-4.20;78.41
50364;BME280;36272;59.400;17.982;2023-12-14T05:07:28;101357.28;;;-4.18;78.50
50364;BME280;36272;59.400;17.982;2023-12-14T05:12:31;101363.38;;;-4.17;78.50
50364;BME280;36272;59.400;17.982;2023-12-14T05:17:33;101367.75;;;-4.18;78.64
50364;BME280;36272;59.400;17.982;2023-12-14T05:22:37;101367.75;;;-4.18;78.48
50364;BME280;36272;59.400;17.982;2023-12-14T05:27:42;101369.53;;;-4.18;78.59
50364;BME280;36272;59.400;17.982;2023-12-14T05:32:44;101363.38;;;-4.17;78.53
50364;BME280;36272;59.400;17.982;2023-12-14T05:37:45;101375.50;;;-4.16;78.57
50364;BME280;36272;59.400;17.982;2023-12-14T05:42:47;101379.66;;;-4.13;78.57
50364;BME280;36272;59.400;17.982;2023-12-14T05:47:49;101379.88;;;-4.16;78.76
50364;BME280;36272;59.400;17.982;2023-12-14T05:52:53;101377.25;;;-4.16;78.65
50364;BME280;36272;59.400;17.982;2023-12-14T05:57:55;101374.25;;;-4.23;78.61
50364;BME280;36272;59.400;17.982;2023-12-14T06:02:57;101371.75;;;-4.25;78.66
50364;BME280;36272;59.400;17.982;2023-12-14T06:07:59;101382.72;;;-4.20;78.89
50364;BME280;36272;59.400;17.982;2023-12-14T06:13:01;101388.66;;;-4.18;78.62
50364;BME280;36272;59.400;17.982;2023-12-14T06:18:02;101393.41;;;-4.23;78.79
50364;BME280;36272;59.400;17.982;2023-12-14T06:23:06;101395.53;;;-4.16;78.83
50364;BME280;36272;59.400;17.982;2023-12-14T06:28:08;101394.72;;;-4.17;78.88
50364;BME280;36272;59.400;17.982;2023-12-14T06:33:12;101400.56;;;-4.13;79.00
50364;BME280;36272;59.400;17.982;2023-12-14T06:43:33;101393.19;;;-4.20;78.96
50364;BME280;36272;59.400;17.982;2023-12-14T06:48:40;101402.78;;;-4.20;78.98
50364;BME280;36272;59.400;17.982;2023-12-14T06:53:42;101416.97;;;-4.11;78.95
50364;BME280;36272;59.400;17.982;2023-12-14T06:58:45;101421.47;;;-4.13;79.04
50364;BME280;36272;59.400;17.982;2023-12-14T07:14:31;101423.69;;;-4.20;79.20
50364;BME280;36272;59.400;17.982;2023-12-14T07:35:08;101446.47;;;-4.22;79.24
50364;BME280;36272;59.400;17.982;2023-12-14T11:42:04;101505.03;;;-4.25;79.57
50364;BME280;36272;59.400;17.982;2023-12-14T11:47:08;101512.22;;;-4.28;79.38
50364;BME280;36272;59.400;17.982;2023-12-14T11:52:10;101515.34;;;-4.23;79.57
50364;BME280;36272;59.400;17.982;2023-12-14T11:57:12;101510.34;;;-4.26;79.49
50364;BME280;36272;59.400;17.982;2023-12-14T12:02:25;101513.81;;;-4.26;79.41
50364;BME280;36272;59.400;17.982;2023-12-14T12:07:27;101528.41;;;-4.23;79.31
50364;BME280;36272;59.400;17.982;2023-12-14T12:28:13;101540.34;;;-4.32;79.37
50364;BME280;36272;59.400;17.982;2023-12-14T12:46:32;101568.97;;;-4.30;79.25
50364;BME280;36272;59.400;17.982;2023-12-14T13:04:25;101558.09;;;-4.37;79.16
50364;BME280;36272;59.400;17.982;2023-12-14T13:09:27;101554.75;;;-4.39;79.07
50364;BME280;36272;59.400;17.982;2023-12-14T13:14:29;101545.88;;;-4.37;79.11
50364;BME280;36272;59.400;17.982;2023-12-14T13:19:31;101556.75;;;-4.30;79.19
50364;BME280;36272;59.400;17.982;2023-12-14T13:24:33;101561.97;;;-4.30;79.39
50364;BME280;36272;59.400;17.982;2023-12-14T13:30:03;101576.50;;;-4.26;79.28
50364;BME280;36272;59.400;17.982;2023-12-14T13:35:52;101566.47;;;-4.32;79.13
50364;BME280;36272;59.400;17.982;2023-12-14T13:41:27;101579.34;;;-4.29;79.12
50364;BME280;36272;59.400;17.982;2023-12-14T13:53:32;101581.09;;;-4.29;79.18
50364;BME280;36272;59.400;17.982;2023-12-14T14:29:26;101594.25;;;-4.44;79.19
50364;BME280;36272;59.400;17.982;2023-12-14T14:34:27;101598.56;;;-4.43;79.12
50364;BME280;36272;59.400;17.982;2023-12-14T14:39:29;101594.16;;;-4.42;79.13
50364;BME280;36272;59.400;17.982;2023-12-14T14:44:33;101601.59;;;-4.36;79.03
50364;BME280;36272;59.400;17.982;2023-12-14T14:49:35;101619.75;;;-4.35;79.02
50364;BME280;36272;59.400;17.982;2023-12-14T14:54:52;101618.41;;;-4.40;79.13
50364;BME280;36272;59.400;17.982;2023-12-14T14:59:54;101621.63;;;-4.37;79.21
50364;BME280;36272;59.400;17.982;2023-12-14T15:04:56;101617.53;;;-4.41;79.05
50364;BME280;36272;59.400;17.982;2023-12-14T15:10:01;101620.59;;;-4.34;79.08
50364;BME280;36272;59.400;17.982;2023-12-14T15:15:04;101625.09;;;-4.36;79.08
50364;BME280;36272;59.400;17.982;2023-12-14T15:20:11;101616.72;;;-4.41;79.02
50364;BME280;36272;59.400;17.982;2023-12-14T15:25:18;101618.59;;;-4.43;78.88
50364;BME280;36272;59.400;17.982;2023-12-14T15:30:19;101614.22;;;-4.43;78.97
50364;BME280;36272;59.400;17.982;2023-12-14T15:35:24;101628.66;;;-4.37;78.79
50364;BME280;36272;59.400;17.982;2023-12-14T15:40:31;101622.06;;;-4.43;78.94
50364;BME280;36272;59.400;17.982;2023-12-14T15:45:58;101640.03;;;-4.38;79.11
50364;BME280;36272;59.400;17.982;2023-12-14T15:51:03;101638.34;;;-4.39;78.92
50364;BME280;36272;59.400;17.982;2023-12-14T15:56:08;101650.28;;;-4.35;78.91
50364;BME280;36272;59.400;17.982;2023-12-14T16:01:17;101646.06;;;-4.38;78.92
50364;BME280;36272;59.400;17.982;2023-12-14T16:06:19;101647.34;;;-4.43;78.83
50364;BME280;36272;59.400;17.982;2023-12-14T16:11:20;101651.50;;;-4.41;78.91
50364;BME280;36272;59.400;17.982;2023-12-14T16:16:22;101658.94;;;-4.35;78.91
50364;BME280;36272;59.400;17.982;2023-12-14T16:21:27;101654.56;;;-4.34;78.94
50364;BME280;36272;59.400;17.982;2023-12-14T16:26:30;101659.81;;;-4.34;78.91
50364;BME280;36272;59.400;17.982;2023-12-14T16:31:32;101662.41;;;-4.34;78.82
50364;BME280;36272;59.400;17.982;2023-12-14T16:36:34;101657.69;;;-4.42;78.66
50364;BME280;36272;59.400;17.982;2023-12-14T16:47:07;101669.72;;;-4.39;78.79
50364;BME280;36272;59.400;17.982;2023-12-14T16:52:10;101668.97;;;-4.41;78.83
50364;BME280;36272;59.400;17.982;2023-12-14T16:57:16;101662.81;;;-4.40;78.77
50364;BME280;36272;59.400;17.982;2023-12-14T17:02:18;101662.94;;;-4.42;78.61
50364;BME280;36272;59.400;17.982;2023-12-14T17:07:20;101661.25;;;-4.43;78.70
50364;BME280;36272;59.400;17.982;2023-12-14T17:12:21;101668.97;;;-4.41;78.55
50364;BME280;36272;59.400;17.982;2023-12-14T17:17:23;101672.31;;;-4.39;78.59
50364;BME280;36272;59.400;17.982;2023-12-14T17:22:28;101670.53;;;-4.39;78.62
50364;BME280;36272;59.400;17.982;2023-12-14T17:27:34;101661.88;;;-4.39;78.65
50364;BME280;36272;59.400;17.982;2023-12-14T17:32:41;101673.16;;;-4.39;78.59
50364;BME280;36272;59.400;17.982;2023-12-14T17:37:45;101676.59;;;-4.38;78.51
50364;BME280;36272;59.400;17.982;2023-12-14T17:42:47;101683.72;;;-4.40;78.63
50364;BME280;36272;59.400;17.982;2023-12-14T17:47:49;101677.75;;;-4.42;78.71
50364;BME280;36272;59.400;17.982;2023-12-14T17:52:50;101682.97;;;-4.42;78.71
50364;BME280;36272;59.400;17.982;2023-12-14T17:58:00;101677.75;;;-4.42;78.76
50364;BME280;36272;59.400;17.982;2023-12-14T18:03:04;101685.28;;;-4.38;78.74
50364;BME280;36272;59.400;17.982;2023-12-14T18:08:06;101685.94;;;-4.34;78.66
50364;BME280;36272;59.400;17.982;2023-12-14T18:13:07;101682.19;;;-4.30;78.63
50364;BME280;36272;59.400;17.982;2023-12-14T18:18:10;101689.16;;;-4.30;78.68
50364;BME280;36272;59.400;17.982;2023-12-14T18:23:12;101679.84;;;-4.35;78.66
50364;BME280;36272;59.400;17.982;2023-12-14T18:28:14;101689.47;;;-4.35;78.71
50364;BME280;36272;59.400;17.982;2023-12-14T18:33:20;101691.22;;;-4.36;78.78
50364;BME280;36272;59.400;17.982;2023-12-14T18:38:22;101687.59;;;-4.33;78.85
50364;BME280;36272;59.400;17.982;2023-12-14T18:43:24;101686.75;;;-4.34;78.92
50364;BME280;36272;59.400;17.982;2023-12-14T18:48:25;101681.72;;;-4.37;78.99
50364;BME280;36272;59.400;17.982;2023-12-14T18:53:27;101684.88;;;-4.31;79.12
50364;BME280;36272;59.400;17.982;2023-12-14T18:58:29;101685.00;;;-4.33;79.21
50364;BME280;36272;59.400;17.982;2023-12-14T19:03:31;101689.28;;;-4.32;78.86
50364;BME280;36272;59.400;17.982;2023-12-14T19:08:32;101699.72;;;-4.32;79.15
50364;BME280;36272;59.400;17.982;2023-12-14T19:13:34;101705.03;;;-4.34;78.98
50364;BME280;36272;59.400;17.982;2023-12-14T19:18:35;101707.75;;;-4.35;78.93
50364;BME280;36272;59.400;17.982;2023-12-14T19:23:37;101708.50;;;-4.33;79.09
50364;BME280;36272;59.400;17.982;2023-12-14T19:28:39;101704.41;;;-4.37;79.26
50364;BME280;36272;59.400;17.982;2023-12-14T19:33:51;101710.38;;;-4.35;79.20
50364;BME280;36272;59.400;17.982;2023-12-14T19:38:53;101719.78;;;-4.33;79.15
50364;BME280;36272;59.400;17.982;2023-12-14T19:44:02;101717.34;;;-4.36;79.17
50364;BME280;36272;59.400;17.982;2023-12-14T19:49:04;101725.94;;;-4.34;79.10
50364;BME280;36272;59.400;17.982;2023-12-14T19:54:05;101719.34;;;-4.39;79.20
50364;BME280;36272;59.400;17.982;2023-12-14T19:59:07;101726.25;;;-4.38;79.22
50364;BME280;36272;59.400;17.982;2023-12-14T20:04:09;101724.47;;;-4.38;79.14
50364;BME280;36272;59.400;17.982;2023-12-14T20:09:10;101716.94;;;-4.42;79.39
50364;BME280;36272;59.400;17.982;2023-12-14T20:14:12;101726.63;;;-4.44;79.00
50364;BME280;36272;59.400;17.982;2023-12-14T20:19:14;101736.91;;;-4.41;79.07
50364;BME280;36272;59.400;17.982;2023-12-14T20:24:16;101733.53;;;-4.43;79.10
50364;BME280;36272;59.400;17.982;2023-12-14T20:35:03;101719.50;;;-4.55;79.00
50364;BME280;36272;59.400;17.982;2023-12-14T20:40:15;101722.19;;;-4.57;79.00
50364;BME280;36272;59.400;17.982;2023-12-14T20:45:17;101723.13;;;-4.58;78.99
50364;BME280;36272;59.400;17.982;2023-12-14T20:50:20;101714.66;;;-4.61;78.87
50364;BME280;36272;59.400;17.982;2023-12-14T20:55:22;101731.81;;;-4.57;79.03
50364;BME280;36272;59.400;17.982;2023-12-14T21:00:23;101730.97;;;-4.58;78.92
50364;BME280;36272;59.400;17.982;2023-12-14T21:05:25;101731.91;;;-4.59;78.94
50364;BME280;36272;59.400;17.982;2023-12-14T21:10:27;101748.50;;;-4.60;79.03
50364;BME280;36272;59.400;17.982;2023-12-14T21:15:31;101746.09;;;-4.63;79.10
50364;BME280;36272;59.400;17.982;2023-12-14T21:20:32;101744.44;;;-4.64;79.02
50364;BME280;36272;59.400;17.982;2023-12-14T21:25:37;101759.16;;;-4.63;79.07
50364;BME280;36272;59.400;17.982;2023-12-14T21:30:42;101757.50;;;-4.64;78.99
50364;BME280;36272;59.400;17.982;2023-12-14T21:35:46;101759.38;;;-4.66;79.05
50364;BME280;36272;59.400;17.982;2023-12-14T21:40:55;101761.63;;;-4.74;78.94
50364;BME280;36272;59.400;17.982;2023-12-14T21:45:59;101754.06;;;-4.79;79.08
50364;BME280;36272;59.400;17.982;2023-12-14T21:51:01;101750.50;;;-4.78;78.92
50364;BME280;36272;59.400;17.982;2023-12-14T21:56:17;101755.00;;;-4.80;79.00
50364;BME280;36272;59.400;17.982;2023-12-14T22:01:21;101765.34;;;-4.79;79.06
50364;BME280;36272;59.400;17.982;2023-12-14T22:06:23;101764.06;;;-4.86;78.87
50364;BME280;36272;59.400;17.982;2023-12-14T22:11:25;101772.81;;;-4.87;78.87
50364;BME280;36272;59.400;17.982;2023-12-14T22:16:31;101776.38;;;-4.88;78.99
50364;BME280;36272;59.400;17.982;2023-12-14T22:21:33;101760.69;;;-4.88;78.92
50364;BME280;36272;59.400;17.982;2023-12-14T22:26:45;101761.63;;;-4.89;78.80
50364;BME280;36272;59.400;17.982;2023-12-14T22:31:49;101774.03;;;-4.93;78.98
50364;BME280;36272;59.400;17.982;2023-12-14T22:36:52;101774.88;;;-4.92;78.98
50364;BME280;36272;59.400;17.982;2023-12-14T22:41:53;101762.56;;;-4.90;78.86
50364;BME280;36272;59.400;17.982;2023-12-14T22:46:55;101755.47;;;-4.88;78.91
50364;BME280;36272;59.400;17.982;2023-12-14T22:52:00;101753.78;;;-4.89;78.87
50364;BME280;36272;59.400;17.982;2023-12-14T22:57:01;101757.34;;;-4.90;78.64
50364;BME280;36272;59.400;17.982;2023-12-14T23:02:03;101762.47;;;-4.88;78.90
50364;BME280;36272;59.400;17.982;2023-12-14T23:07:05;101749.69;;;-4.93;78.88
50364;BME280;36272;59.400;17.982;2023-12-14T23:12:08;101764.25;;;-4.89;78.79
50364;BME280;36272;59.400;17.982;2023-12-14T23:17:09;101765.28;;;-4.91;78.95
50364;BME280;36272;59.400;17.982;2023-12-14T23:22:11;101772.44;;;-4.95;79.00
50364;BME280;36272;59.400;17.982;2023-12-14T23:27:12;101780.47;;;-4.98;79.03
50364;BME280;36272;59.400;17.982;2023-12-14T23:32:14;101787.72;;;-5.03;79.11
50364;BME280;36272;59.400;17.982;2023-12-14T23:37:16;101790.63;;;-5.08;79.07
50364;BME280;36272;59.400;17.982;2023-12-14T23:42:20;101788.97;;;-5.09;79.24
50364;BME280;36272;59.400;17.982;2023-12-14T23:47:22;101795.97;;;-5.10;79.10
50364;BME280;36272;59.400;17.982;2023-12-14T23:52:23;101798.00;;;-5.15;79.19
50364;BME280;36272;59.400;17.982;2023-12-14T23:57:25;101803.47;;;-5.19;78.91
